EDDFGOOY

Guest
Details From EDDF - Frankfurt Am Main
To GOOY - Dakar Leopold Sedar Senghor Intl
Flight Number -
Tags Generated
Created
Modified
Stats Distance 2,471 nm / 4,576 km
Max Altitude 0 ft / 0 m
Waypoints 10
Social Downloads 4
Likes 0
Share VATSIM

Download

Looking for another format? Having issues loading an existing format? Contact us
Advertisement - Login to hide

Notes

Generated

Route

EDDF DJL99 NETRO CCH BLN BARIS MAK KC YF022 GOOY

ID Type Via Altitude Latitude Longitude Leg Dist Tot Dist Heading (true) Name
O EDDF APT - 0 ft / 0 m 50.02754˚ 8.53417˚ - 0 nm - -
DJL99 FIX - 0 ft / 0 m 47.28728˚ 5.09388˚ 213 nm 213 nm 221° / 218° -
NETRO FIX - 0 ft / 0 m 44.05092˚ 1.57303˚ 244 nm 457 nm 219° / 216° -
CCH NDB - 0 ft / 0 m 40.90243˚ -1.29831˚ 227 nm 685 nm 215° / 213° CALAMOCHA NDB
BLN VOR - 0 ft / 0 m 38.15252˚ -3.62501˚ 197 nm 882 nm 214° / 212° BAILEN VOR-DME
BARIS FIX - 0 ft / 0 m 34.90306˚ -5.93056˚ 224 nm 1107 nm 210° / 209° -
MAK VOR - 0 ft / 0 m 31.61278˚ -8.10306˚ 225 nm 1333 nm 210° / 208° MARRAKECH VOR-DME
KC VOR - 0 ft / 0 m 18.09158˚ -15.94828˚ 916 nm 2250 nm 210° / 206° NOUAKCHOTT VOR-DME
YF022 FIX - 0 ft / 0 m 14.77687˚ -17.48484˚ 217 nm 2468 nm 204° / 204° -
O GOOY APT - 0 ft / 0 m 14.73171˚ -17.50427˚ 2 nm 2470 nm 203° / 203° -

Altitude Profile

Advertisement - Login to hide

Weather


0- 5 10 15 20 25 30 35+ Temperature / ° C

Clouds and Precipitation
Forecast for 2017-12-18 12:00 UTC. Updated a minute ago

Ground ~20,000 ft ~40,000 ft Winds

EDDF

Details ICAO EDDF (FRA)
Name Frankfurt am Main
Region Germany - Civil
Timezone Europe/Berlin (UTC+1.0)
Stats Elevation 355 ft / 108 m (AMSL)
Location 50.032604° 8.540641°
Runways 4
Magnetic Variation 2.344° E

METAR

EDDF 180720Z 17008KT 140V200 3600 -SN FEW003 BKN005 00/M00 Q1020 RESN R25R///99// R25C/620395 R25L/620295 R18/650295 NOSIG

Decode

TAF

TAF EDDF 180500Z 1806/1912 18006KT 6000 BKN015 TEMPO 1806/1811 2000 SN BKN007 PROB30 TEMPO 1806/1808 0900 +SN BKN004 BECMG 1809/1812 12005KT TEMPO 1811/1816 RASN BKN012 TEMPO 1818/1912 BKN012 TEMPO 1900/1906 4500 BR PROB30 TEMPO 1906/1912 4500 RA BR BKN008

Decode

Departure Runways

ID Width Length Bearing (true) Bearing (mag) Surface Threshold Offset Overrun Length
07C 197 ft / 60 m 13,091 ft / 3,990 m 69.57° 67.23° Asphalt 0 ft / 0 m 230 ft / 70 m
07L 148 ft / 45 m 9,164 ft / 2,793 m 69.54° 67.20° Concrete 0 ft / 0 m 328 ft / 100 m
07R 148 ft / 45 m 13,094 ft / 3,991 m 69.57° 67.23° Asphalt 0 ft / 0 m 230 ft / 70 m
18 148 ft / 45 m 13,056 ft / 3,980 m 179.84° 177.50° Concrete 0 ft / 0 m 49 ft / 15 m
25C 197 ft / 60 m 13,091 ft / 3,990 m 249.61° 247.27° Asphalt 0 ft / 0 m 1,152 ft / 351 m
25L 148 ft / 45 m 13,094 ft / 3,991 m 249.61° 247.27° Asphalt 0 ft / 0 m 2,051 ft / 625 m
25R 148 ft / 45 m 9,164 ft / 2,793 m 249.57° 247.23° Concrete 0 ft / 0 m 328 ft / 100 m
36 148 ft / 45 m 13,056 ft / 3,980 m 359.84° 357.50° Concrete 0 ft / 0 m 190 ft / 58 m

GOOY

Details ICAO GOOY (DKR)
Name Dakar Leopold Sedar Senghor Intl
Region Senegal
Timezone Africa/Dakar (UTC+0.0)
Stats Elevation 85 ft / 26 m (AMSL)
Location 14.739711° -17.490226°
Runways 2
Magnetic Variation 7.346° W

METAR

GOOY 180700Z 36006KT 8000 NSC 20/17 Q1015

Decode

TAF

TAF GOOY 180530Z 1806/1912 03014KT 8000 NSC= TAF GBYD 180530Z 1806/1912 05008KT CAVOK

Decode

Destination Runways

ID Width Length Bearing (true) Bearing (mag) Surface Threshold Offset Overrun Length
03 98 ft / 30 m 4,921 ft / 1,500 m 22.31° 29.66° Asphalt 0 ft / 0 m 98 ft / 30 m
18 148 ft / 45 m 11,511 ft / 3,509 m 172.57° 179.92° Asphalt 525 ft / 160 m 197 ft / 60 m
21 98 ft / 30 m 4,921 ft / 1,500 m 202.31° 209.66° Asphalt 0 ft / 0 m 1,590 ft / 485 m
36 148 ft / 45 m 11,511 ft / 3,509 m 352.57° 359.92° Asphalt 0 ft / 0 m 197 ft / 60 m

Approach Navaids

Runway Type Ident Frequency Range Bearing (true) Bearing (mag) Slope Elevation
36 Localiser YF 110.30 MHz 18 nm / 33 km 352.33° 359.67° - 65 ft / 20 m (AMSL)
36 Glidescope YF 110.30 MHz 10 nm / 19 km 352.57° 359.92° 3.01° 73 ft / 22 m (AMSL)
36 DME YF 110.30 MHz 18 nm / 33 km - - - 73 ft / 22 m (AMSL)

Popular Alternatives